Terminal Aerodrome Forecast
Issued by NWS Chicago, IL

Home | Current Version | Previous Version | Graphics & Text | Print | Product List | Glossary On
Versions: 1 2 3 4 5 6 7 8 9 10 11 12 13 14 15 16 17 18 19 20 21 22 23 24 25
947
FTUS43 KLOT 232336
TAFRFD
TAF
KRFD 232336Z 2400/2424 16005KT P6SM SCT250
     FM241600 21009KT P6SM SCT040 BKN250 PROB30 2418/2424 4SM TSRA
      BKN040CB=

USA.gov is the U.S. government's official web portal to all federal, state and local government web resources and services.